createdAt,value
2019-03-08T00:00:34.196Z,87.35
2019-03-08T00:03:02.827Z,89.02
2019-03-08T00:05:31.242Z,88.33
2019-03-08T00:07:59.699Z,89.78
2019-03-08T00:10:28.092Z,89.44
2019-03-08T00:12:56.541Z,90.47
2019-03-08T00:15:24.979Z,90.68
2019-03-08T00:17:53.633Z,91.42
2019-03-08T00:20:21.980Z,90.90
2019-03-08T00:22:50.439Z,92.57
2019-03-08T00:25:18.850Z,92.62
2019-03-08T00:27:47.297Z,93.14
2019-03-08T00:30:15.882Z,93.38
2019-03-08T00:32:44.505Z,94.14
2019-03-08T00:35:13.092Z,94.56
2019-03-08T00:37:41.475Z,94.85
2019-03-08T00:40:14.443Z,94.67
2019-03-08T00:42:42.864Z,96.67
2019-03-08T00:45:14.424Z,97.28
2019-03-08T00:47:43.652Z,98.51
2019-03-08T00:50:12.170Z,98.87
2019-03-08T00:52:40.584Z,100.00
2019-03-08T00:55:13.113Z,100.00
2019-03-08T00:57:41.537Z,100.00
2019-03-08T01:00:17.377Z,100.00
2019-03-08T01:02:45.784Z,100.00
2019-03-08T01:05:14.233Z,100.00
2019-03-08T01:07:42.667Z,100.00
2019-03-08T01:10:19.836Z,100.00
2019-03-08T01:12:48.427Z,100.00
2019-03-08T01:15:18.045Z,100.00
2019-03-08T01:17:46.531Z,100.00
2019-03-08T01:20:17.168Z,100.00
2019-03-08T01:22:45.664Z,100.00
2019-03-08T01:25:14.791Z,100.00
2019-03-08T01:27:59.633Z,100.00
2019-03-08T01:30:28.251Z,100.00
2019-03-08T01:32:56.750Z,100.00
2019-03-08T01:35:25.292Z,100.00
2019-03-08T01:37:53.919Z,100.00
2019-03-08T01:40:22.440Z,100.00
2019-03-08T01:42:50.942Z,100.00
2019-03-08T01:45:19.466Z,100.00
2019-03-08T01:47:47.957Z,100.00
2019-03-08T01:50:16.474Z,100.00
2019-03-08T01:52:45.066Z,100.00
2019-03-08T01:55:13.511Z,100.00
2019-03-08T01:57:41.991Z,100.00
2019-03-08T02:00:13.552Z,100.00
2019-03-08T02:02:42.029Z,100.00
2019-03-08T02:05:10.649Z,100.00
2019-03-08T02:07:39.077Z,100.00
2019-03-08T02:10:10.489Z,100.00
2019-03-08T02:12:38.908Z,100.00
2019-03-08T02:15:10.497Z,100.00
2019-03-08T02:17:38.965Z,100.00
2019-03-08T02:20:10.598Z,100.00
2019-03-08T02:22:39.120Z,100.00
2019-03-08T02:25:07.704Z,100.00
2019-03-08T02:27:36.220Z,100.00
2019-03-08T02:30:07.512Z,100.00
2019-03-08T02:32:35.908Z,100.00
2019-03-08T02:35:05.569Z,100.00
2019-03-08T02:37:34.086Z,100.00
2019-03-08T02:40:02.506Z,100.00
2019-03-08T02:42:33.369Z,100.00
2019-03-08T02:45:02.063Z,100.00
2019-03-08T02:47:30.778Z,100.00
2019-03-08T02:49:59.214Z,100.00
2019-03-08T02:52:27.594Z,100.00
2019-03-08T02:54:56.020Z,100.00
2019-03-08T02:57:24.398Z,100.00
2019-03-08T02:59:52.755Z,100.00
2019-03-08T03:02:21.215Z,100.00
2019-03-08T03:04:49.634Z,100.00
2019-03-08T03:07:18.080Z,100.00
2019-03-08T03:09:46.429Z,100.00
2019-03-08T03:12:14.804Z,100.00
2019-03-08T03:14:43.222Z,100.00
2019-03-08T03:17:12.017Z,100.00
2019-03-08T03:19:40.432Z,100.00
2019-03-08T03:22:08.882Z,100.00
2019-03-08T03:24:37.305Z,100.00
2019-03-08T03:27:05.722Z,100.00
2019-03-08T03:29:34.110Z,100.00
2019-03-08T03:32:02.958Z,100.00
2019-03-08T03:34:31.490Z,100.00
2019-03-08T03:36:59.982Z,100.00
2019-03-08T03:39:28.389Z,100.00
2019-03-08T03:41:56.809Z,100.00
2019-03-08T03:44:25.345Z,100.00
2019-03-08T03:46:54.110Z,100.00
2019-03-08T03:49:22.642Z,100.00
2019-03-08T03:51:51.065Z,100.00
2019-03-08T03:54:19.469Z,100.00
2019-03-08T03:56:47.919Z,100.00
2019-03-08T03:59:16.350Z,100.00
2019-03-08T04:01:47.023Z,100.00
2019-03-08T04:04:15.556Z,100.00
2019-03-08T04:06:44.043Z,100.00
2019-03-08T04:09:13.078Z,100.00
2019-03-08T04:11:41.869Z,100.00
2019-03-08T04:14:10.316Z,100.00
2019-03-08T04:16:38.911Z,100.00
2019-03-08T04:19:07.382Z,100.00
2019-03-08T04:21:35.721Z,100.00
2019-03-08T04:24:04.257Z,100.00
2019-03-08T04:26:32.746Z,100.00
2019-03-08T04:29:01.205Z,100.00
2019-03-08T04:31:29.800Z,100.00
2019-03-08T04:33:58.254Z,100.00
2019-03-08T04:36:26.676Z,100.00
2019-03-08T04:38:55.028Z,100.00
2019-03-08T04:41:23.555Z,100.00
2019-03-08T04:43:52.042Z,100.00
2019-03-08T04:46:20.855Z,100.00
2019-03-08T04:48:49.201Z,100.00
2019-03-08T04:51:17.669Z,100.00
2019-03-08T04:53:46.094Z,100.00
2019-03-08T04:56:14.540Z,100.00
2019-03-08T04:58:42.890Z,100.00
2019-03-08T05:01:11.518Z,100.00
2019-03-08T05:03:39.950Z,100.00
2019-03-08T05:06:09.613Z,100.00
2019-03-08T05:08:38.048Z,100.00
2019-03-08T05:11:06.493Z,100.00
2019-03-08T05:13:34.846Z,100.00
2019-03-08T05:16:03.579Z,100.00
2019-03-08T05:18:33.033Z,100.00
2019-03-08T05:21:01.599Z,100.00
2019-03-08T05:23:30.019Z,100.00
2019-03-08T05:25:58.550Z,100.00
2019-03-08T05:28:26.904Z,100.00
2019-03-08T05:30:55.429Z,100.00
2019-03-08T05:33:23.855Z,100.00
2019-03-08T05:35:52.241Z,100.00
2019-03-08T05:38:20.603Z,100.00
2019-03-08T05:40:49.110Z,99.59
2019-03-08T05:43:17.601Z,100.00
2019-03-08T05:45:46.116Z,100.00
2019-03-08T05:48:14.456Z,99.19
2019-03-08T05:50:42.833Z,98.94
2019-03-08T05:53:11.319Z,98.67
2019-03-08T05:55:39.838Z,98.41
2019-03-08T05:58:08.244Z,99.51
2019-03-08T06:00:36.658Z,97.33
2019-03-08T06:03:05.194Z,98.54
2019-03-08T06:05:33.557Z,97.89
2019-03-08T06:08:01.957Z,98.69
2019-03-08T06:10:32.147Z,99.96
2019-03-08T06:13:01.869Z,97.69
2019-03-08T06:15:30.292Z,98.17
2019-03-08T06:17:59.717Z,99.06
2019-03-08T06:20:28.142Z,99.76
2019-03-08T06:22:56.594Z,99.10
2019-03-08T06:25:25.027Z,100.00
2019-03-08T06:27:53.482Z,98.24
2019-03-08T06:30:21.970Z,98.20
2019-03-08T06:32:50.806Z,99.54
2019-03-08T06:35:19.374Z,99.87
2019-03-08T06:37:47.892Z,99.37
2019-03-08T06:40:18.281Z,99.98
2019-03-08T06:42:47.553Z,100.00
2019-03-08T06:45:18.666Z,100.00
2019-03-08T06:47:47.403Z,100.00
2019-03-08T06:50:16.224Z,100.00
2019-03-08T06:52:44.685Z,100.00
2019-03-08T06:55:14.383Z,100.00
2019-03-08T06:57:42.840Z,100.00
2019-03-08T07:00:16.005Z,100.00
2019-03-08T07:02:44.471Z,100.00
2019-03-08T07:05:12.894Z,100.00
2019-03-08T07:07:41.331Z,100.00
2019-03-08T07:10:09.779Z,100.00
2019-03-08T07:12:38.126Z,100.00
2019-03-08T07:15:06.795Z,100.00
2019-03-08T07:17:35.436Z,100.00
2019-03-08T07:20:08.608Z,100.00
2019-03-08T07:22:55.162Z,99.81
2019-03-08T07:25:37.658Z,100.00
2019-03-08T07:28:26.250Z,100.00
2019-03-08T07:31:12.869Z,100.00
2019-03-08T07:33:52.963Z,100.00
2019-03-08T07:36:24.829Z,100.00
2019-03-08T07:39:10.197Z,100.00
2019-03-08T07:41:40.517Z,100.00
2019-03-08T07:44:22.934Z,100.00
2019-03-08T07:46:55.683Z,100.00
2019-03-08T07:49:34.423Z,100.00
2019-03-08T07:52:07.521Z,100.00
2019-03-08T07:54:54.173Z,100.00
2019-03-08T07:57:26.648Z,100.00
2019-03-08T08:00:05.677Z,100.00
2019-03-08T08:02:38.791Z,100.00
2019-03-08T08:05:09.656Z,100.00
2019-03-08T08:07:39.714Z,100.00
2019-03-08T08:10:18.144Z,100.00
2019-03-08T08:12:50.553Z,100.00
2019-03-08T08:15:29.499Z,100.00
2019-03-08T08:18:02.267Z,100.00
2019-03-08T08:20:32.471Z,100.00
2019-03-08T08:23:07.990Z,100.00
2019-03-08T08:25:43.900Z,100.00
2019-03-08T08:28:19.847Z,100.00
2019-03-08T08:31:01.551Z,100.00
2019-03-08T08:33:31.543Z,100.00
2019-03-08T08:36:01.571Z,100.00
2019-03-08T08:38:31.642Z,100.00
2019-03-08T08:41:10.519Z,100.00
2019-03-08T08:43:43.207Z,100.00
2019-03-08T08:46:19.086Z,100.00
2019-03-08T08:48:57.630Z,100.00
2019-03-08T08:51:30.731Z,100.00
2019-03-08T08:54:03.461Z,100.00
2019-03-08T08:56:36.264Z,100.00
2019-03-08T08:59:12.414Z,100.00
2019-03-08T09:01:42.513Z,100.00
2019-03-08T09:04:30.635Z,100.00
2019-03-08T09:07:12.798Z,100.00
2019-03-08T09:09:43.222Z,100.00
2019-03-08T09:12:22.241Z,100.00
2019-03-08T09:15:07.277Z,100.00
2019-03-08T09:17:52.382Z,100.00
2019-03-08T09:20:22.495Z,100.00
2019-03-08T09:22:52.516Z,100.00
2019-03-08T09:25:22.686Z,100.00
2019-03-08T09:27:58.652Z,100.00
2019-03-08T09:30:34.286Z,100.00
2019-03-08T09:33:06.988Z,100.00
2019-03-08T09:35:37.021Z,100.00
2019-03-08T09:38:19.658Z,100.00
2019-03-08T09:41:07.713Z,100.00
2019-03-08T09:43:40.423Z,100.00
2019-03-08T09:46:22.830Z,100.00
2019-03-08T09:49:05.225Z,100.00
2019-03-08T09:51:41.046Z,100.00
2019-03-08T09:54:11.191Z,100.00
2019-03-08T09:56:41.290Z,100.00
2019-03-08T09:59:16.809Z,100.00
2019-03-08T10:01:49.284Z,100.00
2019-03-08T10:04:22.209Z,100.00
2019-03-08T10:07:04.012Z,100.00
2019-03-08T10:09:39.615Z,100.00
2019-03-08T10:12:18.547Z,100.00
2019-03-08T10:14:57.577Z,100.00
2019-03-08T10:17:30.298Z,100.00
2019-03-08T10:20:12.405Z,100.00
2019-03-08T10:22:42.607Z,100.00
2019-03-08T10:25:12.697Z,100.00
2019-03-08T10:27:45.339Z,100.00
2019-03-08T10:30:15.336Z,100.00
2019-03-08T10:32:45.359Z,100.00
2019-03-08T10:35:27.918Z,100.00
2019-03-08T10:38:06.734Z,100.00
2019-03-08T10:40:39.555Z,100.00
2019-03-08T10:43:09.567Z,100.00
2019-03-08T10:45:39.637Z,100.00
2019-03-08T10:48:12.397Z,100.00
2019-03-08T10:50:45.080Z,100.00
2019-03-08T10:53:33.350Z,100.00
2019-03-08T10:56:12.094Z,100.00
2019-03-08T10:58:58.745Z,100.00
2019-03-08T11:01:34.857Z,100.00
2019-03-08T11:04:14.914Z,100.00
2019-03-08T11:06:45.050Z,100.00
2019-03-08T11:09:29.069Z,100.00
2019-03-08T11:11:59.145Z,100.00
2019-03-08T11:14:31.618Z,97.36
2019-03-08T11:17:10.400Z,97.49
2019-03-08T11:19:52.097Z,95.89
2019-03-08T11:22:36.961Z,94.44
2019-03-08T11:25:34.570Z,94.80
2019-03-08T11:28:20.941Z,96.61
2019-03-08T11:31:03.781Z,95.55
2019-03-08T11:33:42.760Z,96.39
2019-03-08T11:36:12.853Z,91.85
2019-03-08T11:38:52.142Z,94.73
2019-03-08T11:41:22.204Z,95.07
2019-03-08T11:44:03.976Z,96.45
2019-03-08T11:46:36.784Z,98.52
2019-03-08T11:49:06.870Z,99.18
2019-03-08T11:51:42.758Z,97.41
2019-03-08T11:54:21.910Z,98.56
2019-03-08T11:57:03.463Z,98.20
2019-03-08T11:59:49.927Z,98.57
2019-03-08T12:02:38.030Z,100.00
2019-03-08T12:05:13.228Z,100.00
2019-03-08T12:07:49.149Z,100.00
2019-03-08T12:10:25.463Z,100.00
2019-03-08T12:12:55.519Z,100.00
2019-03-08T12:15:37.541Z,100.00
2019-03-08T12:18:07.524Z,100.00
2019-03-08T12:20:49.563Z,100.00
2019-03-08T12:23:22.735Z,100.00
2019-03-08T12:25:55.694Z,100.00
2019-03-08T12:28:28.443Z,100.00
2019-03-08T12:30:58.505Z,100.00
2019-03-08T12:33:34.498Z,100.00
2019-03-08T12:36:21.149Z,99.50
2019-03-08T12:38:56.742Z,100.00
2019-03-08T12:41:41.917Z,100.00
2019-03-08T12:44:23.739Z,100.00
2019-03-08T12:47:09.684Z,100.00
2019-03-08T12:49:42.558Z,98.38
2019-03-08T12:52:12.543Z,96.87
2019-03-08T12:54:51.148Z,94.00
2019-03-08T12:57:24.211Z,89.77
2019-03-08T12:59:57.007Z,92.44
2019-03-08T13:02:27.301Z,89.55
2019-03-08T13:04:59.135Z,88.89
2019-03-08T13:07:32.121Z,88.92
2019-03-08T13:10:11.968Z,91.71
2019-03-08T13:12:43.468Z,89.82
2019-03-08T13:15:17.999Z,88.38
2019-03-08T13:17:47.448Z,87.70
2019-03-08T13:20:18.202Z,87.84
2019-03-08T13:22:46.686Z,88.74
2019-03-08T13:25:15.301Z,92.53
2019-03-08T13:27:47.200Z,97.65
2019-03-08T13:30:24.388Z,100.00
2019-03-08T13:32:53.737Z,100.00
2019-03-08T13:35:24.288Z,100.00
2019-03-08T13:37:53.151Z,100.00
2019-03-08T13:40:22.188Z,100.00
2019-03-08T13:42:51.169Z,100.00
2019-03-08T13:45:21.645Z,100.00
2019-03-08T13:47:50.247Z,100.00
2019-03-08T13:50:18.974Z,100.00
2019-03-08T13:52:48.817Z,100.00
2019-03-08T13:55:19.257Z,100.00
2019-03-08T13:57:47.774Z,100.00
2019-03-08T14:00:20.789Z,100.00
2019-03-08T14:02:49.350Z,100.00
2019-03-08T14:05:18.865Z,98.34
2019-03-08T14:07:47.268Z,98.59
2019-03-08T14:10:17.594Z,94.61
2019-03-08T14:12:46.407Z,94.58
2019-03-08T14:15:18.654Z,91.26
2019-03-08T14:17:51.868Z,96.31
2019-03-08T14:20:27.623Z,84.67
2019-03-08T14:22:56.625Z,81.11
2019-03-08T14:25:25.779Z,74.35
2019-03-08T14:27:56.549Z,73.57
2019-03-08T14:30:32.188Z,79.95
2019-03-08T14:33:03.215Z,76.46
2019-03-08T14:35:32.231Z,71.41
2019-03-08T14:38:00.848Z,64.82
2019-03-08T14:40:37.026Z,65.93
2019-03-08T14:43:19.299Z,64.95
2019-03-08T14:45:51.418Z,63.24
2019-03-08T14:48:20.460Z,62.46
2019-03-08T14:50:49.010Z,61.53
2019-03-08T14:53:19.084Z,59.87
2019-03-08T14:55:55.108Z,58.51
2019-03-08T14:58:23.915Z,57.66
2019-03-08T15:00:56.404Z,55.08
2019-03-08T15:03:26.924Z,53.86
2019-03-08T15:05:59.261Z,53.97
2019-03-08T15:08:28.936Z,51.78
2019-03-08T15:11:02.726Z,53.45
2019-03-08T15:13:34.391Z,51.08
2019-03-08T15:16:04.968Z,52.73
2019-03-08T15:18:36.419Z,55.17
2019-03-08T15:21:05.200Z,53.06
2019-03-08T15:23:34.144Z,53.01
2019-03-08T15:26:02.660Z,52.10
2019-03-08T15:28:32.114Z,52.10
2019-03-08T15:31:00.580Z,53.94
2019-03-08T15:33:29.244Z,55.29
2019-03-08T15:35:58.690Z,52.14
2019-03-08T15:38:27.962Z,51.03
2019-03-08T15:40:58.959Z,51.63
2019-03-08T15:43:30.945Z,52.93
2019-03-08T15:46:02.218Z,51.76
2019-03-08T15:48:40.234Z,51.91
2019-03-08T15:51:09.126Z,51.09
2019-03-08T15:53:40.188Z,52.41
2019-03-08T15:56:11.198Z,52.57
2019-03-08T15:58:40.221Z,51.45
2019-03-08T16:01:13.978Z,52.54
2019-03-08T16:03:44.420Z,52.54
2019-03-08T16:06:14.389Z,54.15
2019-03-08T16:08:43.550Z,54.88
2019-03-08T16:11:12.520Z,54.80
2019-03-08T16:13:40.909Z,54.70
2019-03-08T16:16:10.007Z,53.95
2019-03-08T16:18:44.455Z,55.80
2019-03-08T16:21:13.081Z,55.32
2019-03-08T16:23:41.440Z,56.85
2019-03-08T16:26:09.848Z,56.96
2019-03-08T16:28:40.202Z,55.54
2019-03-08T16:31:21.789Z,57.02
2019-03-08T16:33:59.116Z,57.04
2019-03-08T16:36:39.336Z,58.49
2019-03-08T16:39:16.860Z,59.01
2019-03-08T16:41:49.156Z,58.97
2019-03-08T16:44:34.448Z,61.15
2019-03-08T16:47:13.860Z,58.75
2019-03-08T16:50:00.698Z,60.07
2019-03-08T16:52:44.352Z,60.78
2019-03-08T16:55:22.097Z,59.93
2019-03-08T16:57:53.690Z,60.17
2019-03-08T17:00:37.199Z,61.09
2019-03-08T17:03:07.501Z,60.50
2019-03-08T17:05:37.881Z,60.79
2019-03-08T17:08:16.948Z,61.01
2019-03-08T17:10:56.171Z,61.12
2019-03-08T17:13:26.744Z,62.96
2019-03-08T17:16:13.584Z,63.17
2019-03-08T17:18:49.824Z,61.16
2019-03-08T17:21:28.416Z,62.05
2019-03-08T17:24:10.662Z,62.20
2019-03-08T17:26:41.297Z,61.09
2019-03-08T17:29:11.327Z,61.18
2019-03-08T17:31:50.234Z,62.21
2019-03-08T17:34:36.380Z,62.67
2019-03-08T17:37:15.775Z,62.64
2019-03-08T17:39:51.634Z,59.91
2019-03-08T17:42:27.577Z,60.95
2019-03-08T17:45:00.434Z,62.71
2019-03-08T17:47:33.113Z,62.32
2019-03-08T17:50:03.211Z,63.16
2019-03-08T17:52:49.500Z,64.01
2019-03-08T17:55:22.537Z,63.22
2019-03-08T17:58:01.456Z,64.04
2019-03-08T18:00:44.120Z,64.38
2019-03-08T18:03:14.241Z,64.08
2019-03-08T18:05:56.095Z,65.96
2019-03-08T18:08:44.076Z,64.44
2019-03-08T18:11:20.337Z,64.36
2019-03-08T18:13:50.414Z,62.98
2019-03-08T18:16:23.258Z,64.53
2019-03-08T18:18:59.148Z,64.95
2019-03-08T18:21:29.374Z,63.69
2019-03-08T18:23:59.612Z,63.67
2019-03-08T18:26:48.469Z,63.40
2019-03-08T18:29:34.436Z,64.13
2019-03-08T18:32:20.840Z,62.99
2019-03-08T18:34:51.267Z,63.20
2019-03-08T18:37:31.216Z,64.18
2019-03-08T18:40:07.440Z,64.64
2019-03-08T18:42:54.356Z,64.54
2019-03-08T18:45:39.661Z,65.93
2019-03-08T18:48:15.669Z,66.35
2019-03-08T18:50:57.473Z,65.34
2019-03-08T18:53:45.334Z,65.15
2019-03-08T18:56:15.919Z,64.87
2019-03-08T18:58:46.147Z,63.48
2019-03-08T19:01:22.252Z,65.25
2019-03-08T19:04:00.949Z,65.63
2019-03-08T19:06:37.014Z,63.44
2019-03-08T19:09:08.660Z,63.26
2019-03-08T19:11:51.250Z,63.55
2019-03-08T19:14:37.478Z,63.84
2019-03-08T19:17:07.579Z,63.20
2019-03-08T19:19:37.648Z,63.75
2019-03-08T19:22:26.621Z,64.84
2019-03-08T19:25:02.283Z,63.14
2019-03-08T19:27:32.367Z,62.54
2019-03-08T19:30:11.719Z,64.09
2019-03-08T19:32:53.652Z,63.90
2019-03-08T19:35:24.201Z,63.11
2019-03-08T19:37:57.049Z,64.43
2019-03-08T19:40:35.817Z,63.02
2019-03-08T19:43:05.838Z,63.09
2019-03-08T19:45:44.770Z,64.24
2019-03-08T19:48:32.574Z,64.14
2019-03-08T19:51:18.063Z,62.70
2019-03-08T19:53:51.143Z,63.93
2019-03-08T19:56:37.622Z,65.24
2019-03-08T19:59:27.065Z,65.34
2019-03-08T20:02:13.626Z,65.74
2019-03-08T20:04:46.399Z,65.84
2019-03-08T20:07:35.787Z,67.42
2019-03-08T20:10:20.558Z,67.59
2019-03-08T20:13:02.373Z,68.52
2019-03-08T20:15:48.657Z,69.09
2019-03-08T20:18:24.956Z,69.62
2019-03-08T20:21:10.215Z,69.86
2019-03-08T20:23:45.797Z,70.08
2019-03-08T20:26:21.441Z,70.92
2019-03-08T20:29:06.269Z,70.81
2019-03-08T20:31:36.797Z,71.24
2019-03-08T20:34:22.508Z,71.26
2019-03-08T20:36:55.365Z,72.09
2019-03-08T20:39:31.042Z,73.08
2019-03-08T20:42:01.115Z,74.01
2019-03-08T20:44:43.212Z,72.61
2019-03-08T20:47:19.240Z,72.69
2019-03-08T20:49:47.662Z,72.43
2019-03-08T20:52:16.566Z,72.48
2019-03-08T20:54:44.943Z,71.39
2019-03-08T20:57:13.794Z,72.32
2019-03-08T20:59:42.347Z,72.45
2019-03-08T21:02:10.771Z,73.24
2019-03-08T21:04:39.171Z,72.51
2019-03-08T21:07:07.696Z,72.43
2019-03-08T21:09:36.400Z,72.96
2019-03-08T21:12:04.958Z,72.47
2019-03-08T21:14:33.486Z,72.72
2019-03-08T21:17:02.233Z,71.91
2019-03-08T21:19:30.623Z,71.85
2019-03-08T21:21:59.158Z,73.30
2019-03-08T21:24:27.542Z,72.30
2019-03-08T21:26:55.903Z,71.05
2019-03-08T21:29:24.356Z,71.71
2019-03-08T21:31:52.708Z,73.58
2019-03-08T21:34:21.351Z,71.51
2019-03-08T21:36:49.945Z,72.29
2019-03-08T21:39:18.415Z,71.99
2019-03-08T21:41:46.761Z,72.12
2019-03-08T21:44:15.218Z,71.00
2019-03-08T21:46:43.657Z,71.37
2019-03-08T21:49:12.201Z,72.05
2019-03-08T21:51:41.670Z,71.86
2019-03-08T21:54:10.057Z,71.75
2019-03-08T21:56:39.098Z,71.98
2019-03-08T21:59:08.483Z,71.27
2019-03-08T22:01:37.038Z,71.42
2019-03-08T22:04:07.669Z,71.36
2019-03-08T22:06:36.388Z,71.71
2019-03-08T22:09:08.274Z,71.58
2019-03-08T22:11:39.237Z,73.21
2019-03-08T22:14:08.368Z,73.40
2019-03-08T22:16:37.309Z,72.67
2019-03-08T22:19:05.973Z,73.43
2019-03-08T22:21:34.572Z,74.19
2019-03-08T22:24:03.143Z,73.28
2019-03-08T22:26:34.170Z,74.75
2019-03-08T22:29:02.657Z,73.68
2019-03-08T22:31:32.838Z,74.91
2019-03-08T22:34:03.816Z,74.06
2019-03-08T22:36:32.958Z,74.27
2019-03-08T22:39:02.289Z,74.98
2019-03-08T22:41:32.626Z,74.44
2019-03-08T22:44:02.750Z,74.09
2019-03-08T22:46:31.578Z,74.01
2019-03-08T22:49:00.510Z,74.50
2019-03-08T22:51:31.101Z,76.54
2019-03-08T22:54:00.009Z,75.40
2019-03-08T22:56:29.120Z,75.69
2019-03-08T22:58:57.725Z,75.27
2019-03-08T23:01:28.449Z,76.25
2019-03-08T23:03:57.532Z,75.71
2019-03-08T23:06:26.344Z,74.63
2019-03-08T23:08:54.690Z,75.87
2019-03-08T23:11:23.476Z,74.30
2019-03-08T23:13:52.327Z,73.86
2019-03-08T23:16:20.869Z,74.69
2019-03-08T23:18:49.576Z,75.52
2019-03-08T23:21:18.605Z,75.77
2019-03-08T23:23:47.023Z,73.84
2019-03-08T23:26:15.562Z,75.08
2019-03-08T23:29:00.755Z,74.80
2019-03-08T23:31:46.151Z,73.36
2019-03-08T23:34:15.218Z,75.33
2019-03-08T23:36:46.749Z,74.48
2019-03-08T23:39:15.224Z,74.45
2019-03-08T23:41:43.674Z,74.38
2019-03-08T23:44:12.681Z,75.58
2019-03-08T23:46:41.061Z,74.88
2019-03-08T23:49:09.427Z,73.91
2019-03-08T23:51:37.865Z,74.01
2019-03-08T23:54:06.350Z,75.37
2019-03-08T23:56:35.570Z,74.31
2019-03-08T23:59:04.103Z,75.07
